sensor_id;sensor_type;location;lat;lon;timestamp;P1;durP1;ratioP1;P2;durP2;ratioP2
50267;SDS011;36153;50.960;6.220;2023-07-31T00:02:16;7.57;;;3.60;;
50267;SDS011;36153;50.960;6.220;2023-07-31T00:05:17;6.05;;;2.00;;
50267;SDS011;36153;50.960;6.220;2023-07-31T00:08:17;6.50;;;2.03;;
50267;SDS011;36153;50.960;6.220;2023-07-31T00:11:17;3.78;;;1.55;;
50267;SDS011;36153;50.960;6.220;2023-07-31T00:14:18;8.02;;;2.33;;
50267;SDS011;36153;50.960;6.220;2023-07-31T00:17:18;5.30;;;1.60;;
50267;SDS011;36153;50.960;6.220;2023-07-31T00:20:18;7.40;;;2.50;;
50267;SDS011;36153;50.960;6.220;2023-07-31T00:23:19;5.80;;;2.08;;
50267;SDS011;36153;50.960;6.220;2023-07-31T00:26:19;5.32;;;2.15;;
50267;SDS011;36153;50.960;6.220;2023-07-31T00:29:19;5.70;;;1.73;;
50267;SDS011;36153;50.960;6.220;2023-07-31T00:32:20;8.13;;;2.47;;
50267;SDS011;36153;50.960;6.220;2023-07-31T00:35:20;8.18;;;1.88;;
50267;SDS011;36153;50.960;6.220;2023-07-31T00:38:20;4.70;;;1.55;;
50267;SDS011;36153;50.960;6.220;2023-07-31T00:41:21;6.28;;;1.92;;
50267;SDS011;36153;50.960;6.220;2023-07-31T00:44:21;5.40;;;1.98;;
50267;SDS011;36153;50.960;6.220;2023-07-31T00:47:22;5.53;;;1.67;;
50267;SDS011;36153;50.960;6.220;2023-07-31T00:50:23;10.65;;;2.55;;
50267;SDS011;36153;50.960;6.220;2023-07-31T00:53:25;6.95;;;2.60;;
50267;SDS011;36153;50.960;6.220;2023-07-31T00:56:26;5.22;;;2.20;;
50267;SDS011;36153;50.960;6.220;2023-07-31T00:59:28;6.80;;;1.77;;
50267;SDS011;36153;50.960;6.220;2023-07-31T01:02:28;4.40;;;1.88;;
50267;SDS011;36153;50.960;6.220;2023-07-31T01:12:24;5.15;;;2.15;;
50267;SDS011;36153;50.960;6.220;2023-07-31T01:15:27;4.65;;;2.13;;
50267;SDS011;36153;50.960;6.220;2023-07-31T01:18:28;7.68;;;2.25;;
50267;SDS011;36153;50.960;6.220;2023-07-31T01:31:46;5.75;;;2.50;;
50267;SDS011;36153;50.960;6.220;2023-07-31T01:34:49;5.28;;;2.33;;
50267;SDS011;36153;50.960;6.220;2023-07-31T01:37:52;5.05;;;2.03;;
50267;SDS011;36153;50.960;6.220;2023-07-31T01:40:54;6.05;;;2.65;;
50267;SDS011;36153;50.960;6.220;2023-07-31T01:43:54;6.25;;;2.30;;
50267;SDS011;36153;50.960;6.220;2023-07-31T01:46:54;5.32;;;2.25;;
50267;SDS011;36153;50.960;6.220;2023-07-31T01:49:55;7.32;;;2.42;;
50267;SDS011;36153;50.960;6.220;2023-07-31T01:52:55;6.78;;;2.88;;
50267;SDS011;36153;50.960;6.220;2023-07-31T01:55:55;4.00;;;1.90;;
50267;SDS011;36153;50.960;6.220;2023-07-31T01:58:56;7.82;;;2.47;;
50267;SDS011;36153;50.960;6.220;2023-07-31T02:01:56;5.03;;;2.20;;
50267;SDS011;36153;50.960;6.220;2023-07-31T02:04:56;5.28;;;2.20;;
50267;SDS011;36153;50.960;6.220;2023-07-31T02:07:57;3.63;;;2.30;;
50267;SDS011;36153;50.960;6.220;2023-07-31T02:10:57;6.43;;;2.40;;
50267;SDS011;36153;50.960;6.220;2023-07-31T02:13:57;5.50;;;2.10;;
50267;SDS011;36153;50.960;6.220;2023-07-31T02:16:58;4.43;;;2.25;;
50267;SDS011;36153;50.960;6.220;2023-07-31T02:19:58;4.45;;;2.05;;
50267;SDS011;36153;50.960;6.220;2023-07-31T02:22:58;7.05;;;2.30;;
50267;SDS011;36153;50.960;6.220;2023-07-31T02:25:58;6.10;;;2.10;;
50267;SDS011;36153;50.960;6.220;2023-07-31T02:28:59;8.25;;;2.47;;
50267;SDS011;36153;50.960;6.220;2023-07-31T02:31:59;7.40;;;2.33;;
50267;SDS011;36153;50.960;6.220;2023-07-31T02:35:00;5.85;;;2.17;;
50267;SDS011;36153;50.960;6.220;2023-07-31T02:38:00;6.35;;;2.25;;
50267;SDS011;36153;50.960;6.220;2023-07-31T02:41:00;6.95;;;2.30;;
50267;SDS011;36153;50.960;6.220;2023-07-31T02:44:01;8.27;;;2.60;;
50267;SDS011;36153;50.960;6.220;2023-07-31T02:47:01;6.35;;;2.35;;
50267;SDS011;36153;50.960;6.220;2023-07-31T02:50:03;6.45;;;2.30;;
50267;SDS011;36153;50.960;6.220;2023-07-31T02:53:04;5.30;;;2.08;;
50267;SDS011;36153;50.960;6.220;2023-07-31T02:56:04;7.10;;;2.60;;
50267;SDS011;36153;50.960;6.220;2023-07-31T02:59:04;6.50;;;2.22;;
50267;SDS011;36153;50.960;6.220;2023-07-31T03:02:05;4.90;;;2.30;;
50267;SDS011;36153;50.960;6.220;2023-07-31T03:05:05;6.25;;;2.08;;
50267;SDS011;36153;50.960;6.220;2023-07-31T03:08:06;6.38;;;2.30;;
50267;SDS011;36153;50.960;6.220;2023-07-31T03:11:06;7.43;;;2.72;;
50267;SDS011;36153;50.960;6.220;2023-07-31T03:14:06;6.00;;;2.17;;
50267;SDS011;36153;50.960;6.220;2023-07-31T03:17:07;7.72;;;2.65;;
50267;SDS011;36153;50.960;6.220;2023-07-31T03:20:07;5.47;;;2.30;;
50267;SDS011;36153;50.960;6.220;2023-07-31T03:23:08;6.97;;;2.60;;
50267;SDS011;36153;50.960;6.220;2023-07-31T03:26:08;3.38;;;2.13;;
50267;SDS011;36153;50.960;6.220;2023-07-31T03:29:09;6.40;;;2.92;;
50267;SDS011;36153;50.960;6.220;2023-07-31T03:32:09;6.38;;;2.45;;
50267;SDS011;36153;50.960;6.220;2023-07-31T03:35:09;8.63;;;3.10;;
50267;SDS011;36153;50.960;6.220;2023-07-31T03:38:10;6.13;;;2.45;;
50267;SDS011;36153;50.960;6.220;2023-07-31T03:41:10;6.38;;;2.97;;
50267;SDS011;36153;50.960;6.220;2023-07-31T03:44:10;4.28;;;2.13;;
50267;SDS011;36153;50.960;6.220;2023-07-31T03:47:11;5.43;;;2.75;;
50267;SDS011;36153;50.960;6.220;2023-07-31T03:50:11;5.28;;;2.95;;
50267;SDS011;36153;50.960;6.220;2023-07-31T03:53:12;4.43;;;2.65;;
50267;SDS011;36153;50.960;6.220;2023-07-31T03:56:13;6.97;;;2.83;;
50267;SDS011;36153;50.960;6.220;2023-07-31T03:59:13;7.50;;;3.08;;
50267;SDS011;36153;50.960;6.220;2023-07-31T04:02:14;3.95;;;2.22;;
50267;SDS011;36153;50.960;6.220;2023-07-31T04:05:14;5.05;;;2.63;;
50267;SDS011;36153;50.960;6.220;2023-07-31T04:08:14;5.75;;;2.60;;
50267;SDS011;36153;50.960;6.220;2023-07-31T04:11:15;5.00;;;2.45;;
50267;SDS011;36153;50.960;6.220;2023-07-31T04:14:15;5.18;;;2.45;;
50267;SDS011;36153;50.960;6.220;2023-07-31T04:17:17;4.85;;;2.65;;
50267;SDS011;36153;50.960;6.220;2023-07-31T04:20:17;5.25;;;3.00;;
50267;SDS011;36153;50.960;6.220;2023-07-31T04:23:18;4.85;;;2.40;;
50267;SDS011;36153;50.960;6.220;2023-07-31T04:26:18;5.35;;;2.47;;
50267;SDS011;36153;50.960;6.220;2023-07-31T04:29:19;4.88;;;2.33;;
50267;SDS011;36153;50.960;6.220;2023-07-31T04:32:19;6.95;;;2.55;;
50267;SDS011;36153;50.960;6.220;2023-07-31T04:35:20;8.82;;;2.97;;
50267;SDS011;36153;50.960;6.220;2023-07-31T04:38:21;4.93;;;2.50;;
50267;SDS011;36153;50.960;6.220;2023-07-31T04:41:21;5.60;;;2.35;;
50267;SDS011;36153;50.960;6.220;2023-07-31T04:44:22;4.25;;;2.42;;
50267;SDS011;36153;50.960;6.220;2023-07-31T04:47:22;6.55;;;2.80;;
50267;SDS011;36153;50.960;6.220;2023-07-31T04:50:23;5.18;;;2.15;;
50267;SDS011;36153;50.960;6.220;2023-07-31T04:53:23;4.57;;;2.45;;
50267;SDS011;36153;50.960;6.220;2023-07-31T04:56:23;4.05;;;2.65;;
50267;SDS011;36153;50.960;6.220;2023-07-31T04:59:24;3.63;;;2.22;;
50267;SDS011;36153;50.960;6.220;2023-07-31T05:02:24;5.97;;;2.10;;
50267;SDS011;36153;50.960;6.220;2023-07-31T05:05:24;4.28;;;2.55;;
50267;SDS011;36153;50.960;6.220;2023-07-31T05:08:25;7.38;;;2.20;;
50267;SDS011;36153;50.960;6.220;2023-07-31T05:11:25;3.85;;;2.38;;
50267;SDS011;36153;50.960;6.220;2023-07-31T05:14:25;5.78;;;2.17;;
50267;SDS011;36153;50.960;6.220;2023-07-31T05:17:26;3.55;;;1.92;;
50267;SDS011;36153;50.960;6.220;2023-07-31T05:20:26;4.18;;;1.98;;
50267;SDS011;36153;50.960;6.220;2023-07-31T05:23:27;4.75;;;1.85;;
50267;SDS011;36153;50.960;6.220;2023-07-31T05:26:28;3.78;;;1.70;;
50267;SDS011;36153;50.960;6.220;2023-07-31T05:29:28;4.18;;;2.13;;
50267;SDS011;36153;50.960;6.220;2023-07-31T05:32:28;3.53;;;1.73;;
50267;SDS011;36153;50.960;6.220;2023-07-31T05:35:29;3.30;;;1.92;;
50267;SDS011;36153;50.960;6.220;2023-07-31T05:38:29;3.60;;;1.98;;
50267;SDS011;36153;50.960;6.220;2023-07-31T05:41:30;4.07;;;2.53;;
50267;SDS011;36153;50.960;6.220;2023-07-31T05:44:30;5.95;;;2.47;;
50267;SDS011;36153;50.960;6.220;2023-07-31T05:47:31;4.35;;;1.70;;
50267;SDS011;36153;50.960;6.220;2023-07-31T05:50:31;3.78;;;1.58;;
50267;SDS011;36153;50.960;6.220;2023-07-31T05:53:32;3.92;;;1.95;;
50267;SDS011;36153;50.960;6.220;2023-07-31T05:56:32;4.03;;;2.72;;
50267;SDS011;36153;50.960;6.220;2023-07-31T05:59:34;4.30;;;2.42;;
50267;SDS011;36153;50.960;6.220;2023-07-31T06:02:34;3.97;;;1.85;;
50267;SDS011;36153;50.960;6.220;2023-07-31T06:05:36;6.88;;;2.72;;
50267;SDS011;36153;50.960;6.220;2023-07-31T06:08:37;4.38;;;2.80;;
50267;SDS011;36153;50.960;6.220;2023-07-31T06:11:37;4.72;;;2.10;;
50267;SDS011;36153;50.960;6.220;2023-07-31T06:14:37;4.32;;;1.95;;
50267;SDS011;36153;50.960;6.220;2023-07-31T06:17:38;3.72;;;1.88;;
50267;SDS011;36153;50.960;6.220;2023-07-31T06:20:38;4.30;;;1.85;;
50267;SDS011;36153;50.960;6.220;2023-07-31T06:23:40;3.42;;;1.70;;
50267;SDS011;36153;50.960;6.220;2023-07-31T06:26:40;3.55;;;1.70;;
50267;SDS011;36153;50.960;6.220;2023-07-31T06:29:41;4.22;;;1.90;;
50267;SDS011;36153;50.960;6.220;2023-07-31T06:32:42;4.20;;;2.00;;
50267;SDS011;36153;50.960;6.220;2023-07-31T06:35:42;3.65;;;1.65;;
50267;SDS011;36153;50.960;6.220;2023-07-31T06:38:43;5.55;;;1.90;;
50267;SDS011;36153;50.960;6.220;2023-07-31T06:41:44;3.80;;;1.75;;
50267;SDS011;36153;50.960;6.220;2023-07-31T06:44:44;4.55;;;2.22;;
50267;SDS011;36153;50.960;6.220;2023-07-31T06:47:45;5.57;;;1.60;;
50267;SDS011;36153;50.960;6.220;2023-07-31T06:50:45;5.38;;;1.63;;
50267;SDS011;36153;50.960;6.220;2023-07-31T06:53:45;5.72;;;1.75;;
50267;SDS011;36153;50.960;6.220;2023-07-31T06:56:46;2.53;;;1.65;;
50267;SDS011;36153;50.960;6.220;2023-07-31T06:59:46;3.95;;;2.15;;
50267;SDS011;36153;50.960;6.220;2023-07-31T07:02:47;4.13;;;1.88;;
50267;SDS011;36153;50.960;6.220;2023-07-31T07:05:48;3.90;;;1.52;;
50267;SDS011;36153;50.960;6.220;2023-07-31T07:08:48;4.63;;;1.40;;
50267;SDS011;36153;50.960;6.220;2023-07-31T07:11:49;4.05;;;2.00;;
50267;SDS011;36153;50.960;6.220;2023-07-31T07:14:49;4.35;;;2.35;;
50267;SDS011;36153;50.960;6.220;2023-07-31T07:17:50;3.70;;;2.35;;
50267;SDS011;36153;50.960;6.220;2023-07-31T07:20:50;3.58;;;1.58;;
50267;SDS011;36153;50.960;6.220;2023-07-31T07:23:52;6.80;;;2.00;;
50267;SDS011;36153;50.960;6.220;2023-07-31T07:26:52;5.25;;;2.75;;
50267;SDS011;36153;50.960;6.220;2023-07-31T07:29:52;4.60;;;1.83;;
50267;SDS011;36153;50.960;6.220;2023-07-31T07:32:53;8.15;;;1.90;;
50267;SDS011;36153;50.960;6.220;2023-07-31T07:35:53;3.72;;;1.58;;
50267;SDS011;36153;50.960;6.220;2023-07-31T07:38:54;2.60;;;1.52;;
50267;SDS011;36153;50.960;6.220;2023-07-31T07:41:54;5.35;;;1.98;;
50267;SDS011;36153;50.960;6.220;2023-07-31T07:44:54;3.53;;;1.88;;
50267;SDS011;36153;50.960;6.220;2023-07-31T07:47:55;4.00;;;1.70;;
50267;SDS011;36153;50.960;6.220;2023-07-31T07:50:55;4.63;;;2.10;;
50267;SDS011;36153;50.960;6.220;2023-07-31T07:53:55;3.45;;;2.72;;
50267;SDS011;36153;50.960;6.220;2023-07-31T07:56:56;3.60;;;2.08;;
50267;SDS011;36153;50.960;6.220;2023-07-31T07:59:56;3.15;;;1.98;;
50267;SDS011;36153;50.960;6.220;2023-07-31T08:02:56;3.47;;;1.48;;
50267;SDS011;36153;50.960;6.220;2023-07-31T08:05:58;3.88;;;1.50;;
50267;SDS011;36153;50.960;6.220;2023-07-31T08:08:59;5.03;;;2.40;;
50267;SDS011;36153;50.960;6.220;2023-07-31T08:11:59;5.97;;;2.55;;
50267;SDS011;36153;50.960;6.220;2023-07-31T08:15:04;4.97;;;2.38;;
50267;SDS011;36153;50.960;6.220;2023-07-31T08:18:04;4.43;;;1.58;;
50267;SDS011;36153;50.960;6.220;2023-07-31T08:21:05;4.45;;;2.15;;
50267;SDS011;36153;50.960;6.220;2023-07-31T08:24:05;3.88;;;1.67;;
50267;SDS011;36153;50.960;6.220;2023-07-31T08:27:07;4.00;;;1.73;;
50267;SDS011;36153;50.960;6.220;2023-07-31T08:30:08;3.25;;;1.45;;
50267;SDS011;36153;50.960;6.220;2023-07-31T08:33:09;3.45;;;1.58;;
50267;SDS011;36153;50.960;6.220;2023-07-31T08:36:09;2.28;;;1.75;;
50267;SDS011;36153;50.960;6.220;2023-07-31T08:39:10;5.28;;;1.98;;
50267;SDS011;36153;50.960;6.220;2023-07-31T08:42:10;4.15;;;1.70;;
50267;SDS011;36153;50.960;6.220;2023-07-31T08:45:14;3.47;;;1.88;;
50267;SDS011;36153;50.960;6.220;2023-07-31T08:48:16;5.47;;;2.00;;
50267;SDS011;36153;50.960;6.220;2023-07-31T08:51:17;3.40;;;1.65;;
50267;SDS011;36153;50.960;6.220;2023-07-31T08:54:17;4.35;;;2.13;;
50267;SDS011;36153;50.960;6.220;2023-07-31T08:57:18;3.13;;;1.45;;
50267;SDS011;36153;50.960;6.220;2023-07-31T09:00:19;4.80;;;1.80;;
50267;SDS011;36153;50.960;6.220;2023-07-31T09:03:24;3.70;;;2.05;;
50267;SDS011;36153;50.960;6.220;2023-07-31T09:06:26;3.60;;;2.00;;
50267;SDS011;36153;50.960;6.220;2023-07-31T09:09:33;3.70;;;1.85;;
50267;SDS011;36153;50.960;6.220;2023-07-31T09:12:33;3.80;;;2.10;;
50267;SDS011;36153;50.960;6.220;2023-07-31T09:15:34;5.25;;;1.90;;
50267;SDS011;36153;50.960;6.220;2023-07-31T09:18:52;3.55;;;1.95;;
50267;SDS011;36153;50.960;6.220;2023-07-31T09:21:54;4.53;;;2.35;;
50267;SDS011;36153;50.960;6.220;2023-07-31T09:24:55;5.38;;;1.80;;
50267;SDS011;36153;50.960;6.220;2023-07-31T09:28:08;3.28;;;1.60;;
50267;SDS011;36153;50.960;6.220;2023-07-31T09:31:09;3.38;;;1.65;;
50267;SDS011;36153;50.960;6.220;2023-07-31T09:34:11;4.57;;;1.60;;
50267;SDS011;36153;50.960;6.220;2023-07-31T09:37:13;4.88;;;1.77;;
50267;SDS011;36153;50.960;6.220;2023-07-31T09:40:24;4.50;;;3.03;;
50267;SDS011;36153;50.960;6.220;2023-07-31T09:43:32;4.55;;;2.42;;
50267;SDS011;36153;50.960;6.220;2023-07-31T09:46:36;3.97;;;2.28;;
50267;SDS011;36153;50.960;6.220;2023-07-31T09:49:37;5.22;;;2.60;;
50267;SDS011;36153;50.960;6.220;2023-07-31T09:52:38;5.35;;;2.10;;
50267;SDS011;36153;50.960;6.220;2023-07-31T09:55:39;4.65;;;1.70;;
50267;SDS011;36153;50.960;6.220;2023-07-31T09:58:41;5.32;;;2.53;;
50267;SDS011;36153;50.960;6.220;2023-07-31T10:01:42;3.13;;;2.00;;
50267;SDS011;36153;50.960;6.220;2023-07-31T10:04:43;4.43;;;2.53;;
50267;SDS011;36153;50.960;6.220;2023-07-31T10:07:47;3.67;;;1.73;;
50267;SDS011;36153;50.960;6.220;2023-07-31T10:10:53;4.25;;;2.40;;
50267;SDS011;36153;50.960;6.220;2023-07-31T10:13:54;5.10;;;2.55;;
50267;SDS011;36153;50.960;6.220;2023-07-31T10:16:56;2.72;;;1.83;;
50267;SDS011;36153;50.960;6.220;2023-07-31T10:19:58;4.43;;;1.92;;
50267;SDS011;36153;50.960;6.220;2023-07-31T10:23:03;3.00;;;2.13;;
50267;SDS011;36153;50.960;6.220;2023-07-31T10:26:03;5.13;;;1.90;;
50267;SDS011;36153;50.960;6.220;2023-07-31T10:29:06;3.70;;;1.90;;
50267;SDS011;36153;50.960;6.220;2023-07-31T10:32:07;3.55;;;1.48;;
50267;SDS011;36153;50.960;6.220;2023-07-31T10:35:11;3.17;;;1.40;;
50267;SDS011;36153;50.960;6.220;2023-07-31T10:38:12;2.35;;;1.20;;
50267;SDS011;36153;50.960;6.220;2023-07-31T10:41:13;2.53;;;1.30;;
50267;SDS011;36153;50.960;6.220;2023-07-31T10:44:16;1.77;;;0.90;;
50267;SDS011;36153;50.960;6.220;2023-07-31T10:50:21;3.53;;;1.67;;
50267;SDS011;36153;50.960;6.220;2023-07-31T10:53:30;1.80;;;1.20;;
50267;SDS011;36153;50.960;6.220;2023-07-31T10:56:36;3.35;;;1.40;;
50267;SDS011;36153;50.960;6.220;2023-07-31T10:59:37;2.00;;;1.00;;
50267;SDS011;36153;50.960;6.220;2023-07-31T11:02:38;2.67;;;1.20;;
50267;SDS011;36153;50.960;6.220;2023-07-31T11:08:50;1.75;;;0.98;;
50267;SDS011;36153;50.960;6.220;2023-07-31T11:11:51;1.50;;;1.00;;
50267;SDS011;36153;50.960;6.220;2023-07-31T11:14:56;1.92;;;0.98;;
50267;SDS011;36153;50.960;6.220;2023-07-31T11:17:57;1.45;;;1.10;;
50267;SDS011;36153;50.960;6.220;2023-07-31T11:21:00;1.45;;;1.08;;
50267;SDS011;36153;50.960;6.220;2023-07-31T11:24:00;1.73;;;1.17;;
50267;SDS011;36153;50.960;6.220;2023-07-31T11:27:00;2.90;;;1.10;;
50267;SDS011;36153;50.960;6.220;2023-07-31T11:30:07;1.95;;;1.20;;
50267;SDS011;36153;50.960;6.220;2023-07-31T11:33:09;1.55;;;0.85;;
50267;SDS011;36153;50.960;6.220;2023-07-31T11:36:18;3.85;;;1.92;;
50267;SDS011;36153;50.960;6.220;2023-07-31T11:39:20;2.30;;;1.50;;
50267;SDS011;36153;50.960;6.220;2023-07-31T11:42:20;2.13;;;1.13;;
50267;SDS011;36153;50.960;6.220;2023-07-31T11:45:20;1.90;;;1.20;;
50267;SDS011;36153;50.960;6.220;2023-07-31T11:48:22;1.85;;;1.40;;
50267;SDS011;36153;50.960;6.220;2023-07-31T11:51:27;2.30;;;1.30;;
50267;SDS011;36153;50.960;6.220;2023-07-31T11:54:29;3.08;;;2.00;;
50267;SDS011;36153;50.960;6.220;2023-07-31T11:57:30;3.80;;;1.55;;
50267;SDS011;36153;50.960;6.220;2023-07-31T12:00:30;3.03;;;1.63;;
50267;SDS011;36153;50.960;6.220;2023-07-31T12:03:31;2.45;;;1.77;;
50267;SDS011;36153;50.960;6.220;2023-07-31T12:06:33;4.15;;;1.42;;
50267;SDS011;36153;50.960;6.220;2023-07-31T12:09:35;3.33;;;1.63;;
50267;SDS011;36153;50.960;6.220;2023-07-31T12:12:35;2.70;;;1.65;;
50267;SDS011;36153;50.960;6.220;2023-07-31T12:18:40;2.45;;;1.60;;
50267;SDS011;36153;50.960;6.220;2023-07-31T12:21:41;2.42;;;1.92;;
50267;SDS011;36153;50.960;6.220;2023-07-31T12:24:42;2.38;;;1.73;;
50267;SDS011;36153;50.960;6.220;2023-07-31T12:27:50;3.22;;;2.28;;
50267;SDS011;36153;50.960;6.220;2023-07-31T12:30:56;3.03;;;1.67;;
50267;SDS011;36153;50.960;6.220;2023-07-31T12:33:59;2.65;;;1.92;;
50267;SDS011;36153;50.960;6.220;2023-07-31T12:37:00;3.63;;;1.70;;
50267;SDS011;36153;50.960;6.220;2023-07-31T12:40:00;4.70;;;1.98;;
50267;SDS011;36153;50.960;6.220;2023-07-31T12:43:04;3.33;;;1.75;;
50267;SDS011;36153;50.960;6.220;2023-07-31T12:46:05;3.03;;;1.60;;
50267;SDS011;36153;50.960;6.220;2023-07-31T12:49:07;4.38;;;1.90;;
50267;SDS011;36153;50.960;6.220;2023-07-31T12:52:08;4.22;;;1.85;;
50267;SDS011;36153;50.960;6.220;2023-07-31T12:55:09;2.95;;;1.60;;
50267;SDS011;36153;50.960;6.220;2023-07-31T12:58:10;2.63;;;1.65;;
50267;SDS011;36153;50.960;6.220;2023-07-31T13:01:11;3.63;;;1.63;;
50267;SDS011;36153;50.960;6.220;2023-07-31T13:04:11;4.32;;;1.52;;
50267;SDS011;36153;50.960;6.220;2023-07-31T13:07:12;3.10;;;1.90;;
50267;SDS011;36153;50.960;6.220;2023-07-31T13:10:12;3.53;;;1.77;;
50267;SDS011;36153;50.960;6.220;2023-07-31T13:13:13;3.53;;;1.52;;
50267;SDS011;36153;50.960;6.220;2023-07-31T13:16:13;2.72;;;1.80;;
50267;SDS011;36153;50.960;6.220;2023-07-31T13:19:13;2.90;;;1.88;;
50267;SDS011;36153;50.960;6.220;2023-07-31T13:22:14;2.60;;;1.67;;
50267;SDS011;36153;50.960;6.220;2023-07-31T13:25:14;2.35;;;1.50;;
50267;SDS011;36153;50.960;6.220;2023-07-31T13:28:14;4.93;;;1.73;;
50267;SDS011;36153;50.960;6.220;2023-07-31T13:31:15;3.78;;;2.33;;
50267;SDS011;36153;50.960;6.220;2023-07-31T13:34:15;3.80;;;1.63;;
50267;SDS011;36153;50.960;6.220;2023-07-31T13:37:15;2.60;;;1.90;;
50267;SDS011;36153;50.960;6.220;2023-07-31T13:40:16;3.45;;;1.90;;
50267;SDS011;36153;50.960;6.220;2023-07-31T13:43:16;2.70;;;1.50;;
50267;SDS011;36153;50.960;6.220;2023-07-31T13:46:17;3.63;;;1.60;;
50267;SDS011;36153;50.960;6.220;2023-07-31T13:49:18;3.08;;;2.20;;
50267;SDS011;36153;50.960;6.220;2023-07-31T13:52:18;3.78;;;2.03;;
50267;SDS011;36153;50.960;6.220;2023-07-31T13:55:18;2.75;;;1.83;;
50267;SDS011;36153;50.960;6.220;2023-07-31T13:58:20;3.47;;;2.00;;
50267;SDS011;36153;50.960;6.220;2023-07-31T14:01:20;2.65;;;1.88;;
50267;SDS011;36153;50.960;6.220;2023-07-31T14:04:20;4.85;;;2.17;;
50267;SDS011;36153;50.960;6.220;2023-07-31T14:07:21;4.13;;;1.92;;
50267;SDS011;36153;50.960;6.220;2023-07-31T14:10:21;3.05;;;1.80;;
50267;SDS011;36153;50.960;6.220;2023-07-31T14:13:21;5.22;;;2.50;;
50267;SDS011;36153;50.960;6.220;2023-07-31T14:16:22;5.18;;;2.30;;
50267;SDS011;36153;50.960;6.220;2023-07-31T14:19:22;4.30;;;2.00;;
50267;SDS011;36153;50.960;6.220;2023-07-31T14:22:27;4.07;;;2.70;;
50267;SDS011;36153;50.960;6.220;2023-07-31T14:25:30;3.83;;;2.45;;
50267;SDS011;36153;50.960;6.220;2023-07-31T14:28:31;4.10;;;2.38;;
50267;SDS011;36153;50.960;6.220;2023-07-31T14:31:31;4.43;;;2.38;;
50267;SDS011;36153;50.960;6.220;2023-07-31T14:34:32;3.50;;;2.28;;
50267;SDS011;36153;50.960;6.220;2023-07-31T14:37:42;4.13;;;2.40;;
50267;SDS011;36153;50.960;6.220;2023-07-31T14:40:43;4.85;;;2.58;;
50267;SDS011;36153;50.960;6.220;2023-07-31T14:43:44;2.80;;;2.05;;
50267;SDS011;36153;50.960;6.220;2023-07-31T14:46:44;3.55;;;1.80;;
50267;SDS011;36153;50.960;6.220;2023-07-31T14:49:44;3.53;;;2.00;;
50267;SDS011;36153;50.960;6.220;2023-07-31T14:52:45;4.32;;;2.63;;
50267;SDS011;36153;50.960;6.220;2023-07-31T14:55:45;5.05;;;2.47;;
50267;SDS011;36153;50.960;6.220;2023-07-31T14:58:45;3.97;;;2.55;;
50267;SDS011;36153;50.960;6.220;2023-07-31T15:01:46;4.38;;;2.08;;
50267;SDS011;36153;50.960;6.220;2023-07-31T15:04:46;3.95;;;2.75;;
50267;SDS011;36153;50.960;6.220;2023-07-31T15:07:46;7.45;;;2.42;;
50267;SDS011;36153;50.960;6.220;2023-07-31T15:10:47;4.07;;;2.65;;
50267;SDS011;36153;50.960;6.220;2023-07-31T15:13:47;6.07;;;2.08;;
50267;SDS011;36153;50.960;6.220;2023-07-31T15:16:48;3.83;;;2.15;;
50267;SDS011;36153;50.960;6.220;2023-07-31T15:19:48;6.70;;;2.22;;
50267;SDS011;36153;50.960;6.220;2023-07-31T15:22:49;3.80;;;2.25;;
50267;SDS011;36153;50.960;6.220;2023-07-31T15:25:51;4.32;;;2.47;;
50267;SDS011;36153;50.960;6.220;2023-07-31T15:28:55;3.58;;;2.42;;
50267;SDS011;36153;50.960;6.220;2023-07-31T15:32:00;3.88;;;2.40;;
50267;SDS011;36153;50.960;6.220;2023-07-31T15:35:00;4.35;;;2.67;;
50267;SDS011;36153;50.960;6.220;2023-07-31T15:38:00;6.13;;;2.30;;
50267;SDS011;36153;50.960;6.220;2023-07-31T15:44:04;3.90;;;2.17;;
50267;SDS011;36153;50.960;6.220;2023-07-31T15:47:05;5.78;;;2.63;;
50267;SDS011;36153;50.960;6.220;2023-07-31T15:50:05;2.58;;;1.35;;
50267;SDS011;36153;50.960;6.220;2023-07-31T15:53:06;2.55;;;1.50;;
50267;SDS011;36153;50.960;6.220;2023-07-31T15:56:06;3.35;;;1.33;;
50267;SDS011;36153;50.960;6.220;2023-07-31T15:59:07;3.75;;;1.40;;
50267;SDS011;36153;50.960;6.220;2023-07-31T16:02:07;2.65;;;1.40;;
50267;SDS011;36153;50.960;6.220;2023-07-31T16:05:11;2.42;;;1.40;;
50267;SDS011;36153;50.960;6.220;2023-07-31T16:08:11;2.75;;;1.30;;
50267;SDS011;36153;50.960;6.220;2023-07-31T16:11:12;2.05;;;1.40;;
50267;SDS011;36153;50.960;6.220;2023-07-31T16:14:12;4.38;;;1.50;;
50267;SDS011;36153;50.960;6.220;2023-07-31T16:17:12;4.57;;;1.42;;
50267;SDS011;36153;50.960;6.220;2023-07-31T16:20:13;2.13;;;1.30;;
50267;SDS011;36153;50.960;6.220;2023-07-31T16:23:13;3.10;;;1.40;;
50267;SDS011;36153;50.960;6.220;2023-07-31T16:26:13;2.90;;;1.25;;
50267;SDS011;36153;50.960;6.220;2023-07-31T16:29:14;2.63;;;1.80;;
50267;SDS011;36153;50.960;6.220;2023-07-31T16:32:14;3.67;;;1.63;;
50267;SDS011;36153;50.960;6.220;2023-07-31T16:35:14;2.70;;;1.55;;
50267;SDS011;36153;50.960;6.220;2023-07-31T16:38:15;3.70;;;1.48;;
50267;SDS011;36153;50.960;6.220;2023-07-31T16:41:15;2.70;;;1.30;;
50267;SDS011;36153;50.960;6.220;2023-07-31T16:44:15;3.13;;;1.85;;
50267;SDS011;36153;50.960;6.220;2023-07-31T16:47:16;3.25;;;1.40;;
50267;SDS011;36153;50.960;6.220;2023-07-31T16:50:16;1.98;;;1.38;;
50267;SDS011;36153;50.960;6.220;2023-07-31T16:53:16;2.85;;;1.50;;
50267;SDS011;36153;50.960;6.220;2023-07-31T16:56:17;2.50;;;1.38;;
50267;SDS011;36153;50.960;6.220;2023-07-31T16:59:17;3.10;;;1.38;;
50267;SDS011;36153;50.960;6.220;2023-07-31T17:02:19;3.10;;;1.83;;
50267;SDS011;36153;50.960;6.220;2023-07-31T17:05:19;2.97;;;1.80;;
50267;SDS011;36153;50.960;6.220;2023-07-31T17:08:19;3.70;;;1.08;;
50267;SDS011;36153;50.960;6.220;2023-07-31T17:11:20;1.98;;;1.67;;
50267;SDS011;36153;50.960;6.220;2023-07-31T17:14:20;2.28;;;1.08;;
50267;SDS011;36153;50.960;6.220;2023-07-31T17:17:21;1.85;;;1.10;;
50267;SDS011;36153;50.960;6.220;2023-07-31T17:20:23;1.98;;;1.25;;
50267;SDS011;36153;50.960;6.220;2023-07-31T17:23:23;3.70;;;1.10;;
50267;SDS011;36153;50.960;6.220;2023-07-31T17:26:24;1.77;;;1.00;;
50267;SDS011;36153;50.960;6.220;2023-07-31T17:29:28;1.77;;;1.10;;
50267;SDS011;36153;50.960;6.220;2023-07-31T17:32:29;1.90;;;0.60;;
50267;SDS011;36153;50.960;6.220;2023-07-31T17:35:30;1.50;;;1.00;;
50267;SDS011;36153;50.960;6.220;2023-07-31T17:38:31;2.03;;;1.00;;
50267;SDS011;36153;50.960;6.220;2023-07-31T17:41:33;1.48;;;0.85;;
50267;SDS011;36153;50.960;6.220;2023-07-31T17:44:34;1.48;;;0.70;;
50267;SDS011;36153;50.960;6.220;2023-07-31T17:47:34;1.95;;;0.85;;
50267;SDS011;36153;50.960;6.220;2023-07-31T17:50:35;1.95;;;0.80;;
50267;SDS011;36153;50.960;6.220;2023-07-31T17:53:36;1.60;;;0.57;;
50267;SDS011;36153;50.960;6.220;2023-07-31T17:56:37;0.80;;;0.50;;
50267;SDS011;36153;50.960;6.220;2023-07-31T17:59:38;1.83;;;0.50;;
50267;SDS011;36153;50.960;6.220;2023-07-31T18:02:38;2.83;;;0.70;;
50267;SDS011;36153;50.960;6.220;2023-07-31T18:05:38;0.88;;;0.40;;
50267;SDS011;36153;50.960;6.220;2023-07-31T18:08:40;1.05;;;0.50;;
50267;SDS011;36153;50.960;6.220;2023-07-31T18:11:40;1.77;;;0.50;;
50267;SDS011;36153;50.960;6.220;2023-07-31T18:14:41;1.00;;;0.43;;
50267;SDS011;36153;50.960;6.220;2023-07-31T18:17:41;1.40;;;0.40;;
50267;SDS011;36153;50.960;6.220;2023-07-31T18:20:41;1.98;;;0.43;;
50267;SDS011;36153;50.960;6.220;2023-07-31T18:23:42;1.83;;;0.77;;
50267;SDS011;36153;50.960;6.220;2023-07-31T18:26:42;0.50;;;0.30;;
50267;SDS011;36153;50.960;6.220;2023-07-31T18:29:42;2.58;;;0.90;;
50267;SDS011;36153;50.960;6.220;2023-07-31T18:32:43;1.40;;;0.60;;
50267;SDS011;36153;50.960;6.220;2023-07-31T18:35:45;1.58;;;0.40;;
50267;SDS011;36153;50.960;6.220;2023-07-31T18:38:45;1.40;;;0.40;;
50267;SDS011;36153;50.960;6.220;2023-07-31T18:41:45;1.02;;;0.57;;